Burtrum, Minnesota
Current Conditions -  °F | °C
As of 10:08 AM on Friday 19 Dec 2014 (Local Time) from K14Y Reporting Station
Haze Haze  
Wind Chill: 12°   Ceiling: 300
Heat Index: 21°   Visibility: 0.75mi
Dew Point: 21°   Wind: 8mph
Humidity: 100%   Direction: 120°ESE
Pressure: 30.16"   Gusts: NA
Location:  45.87°N, 94.69°W
Report Text: K14Y 191608Z AUTO 12007KT 3/4SM BR OVC003 M06/M06 A3016 RMK AO2
Loading
Personal Weather Stations






























Interactive Weather Map New forecast layout! Learn more

10-Day Weather Forecast

Advertisements
Track Severe Weather on mobile